sensor_id;sensor_type;location;lat;lon;timestamp;P1;durP1;ratioP1;P2;durP2;ratioP2
23123;SDS011;11731;48.592;8.858;2023-12-20T00:01:36;0.70;;;0.70;;
23123;SDS011;11731;48.592;8.858;2023-12-20T00:04:03;0.80;;;0.80;;
23123;SDS011;11731;48.592;8.858;2023-12-20T00:06:30;0.90;;;0.90;;
23123;SDS011;11731;48.592;8.858;2023-12-20T00:08:57;1.13;;;0.90;;
23123;SDS011;11731;48.592;8.858;2023-12-20T00:11:24;1.10;;;1.00;;
23123;SDS011;11731;48.592;8.858;2023-12-20T00:13:52;1.90;;;1.03;;
23123;SDS011;11731;48.592;8.858;2023-12-20T00:16:19;0.90;;;0.80;;
23123;SDS011;11731;48.592;8.858;2023-12-20T00:18:46;1.13;;;1.00;;
23123;SDS011;11731;48.592;8.858;2023-12-20T00:21:13;0.70;;;0.70;;
23123;SDS011;11731;48.592;8.858;2023-12-20T00:23:40;1.40;;;1.10;;
23123;SDS011;11731;48.592;8.858;2023-12-20T00:26:07;0.90;;;0.90;;
23123;SDS011;11731;48.592;8.858;2023-12-20T00:28:33;1.10;;;1.00;;
23123;SDS011;11731;48.592;8.858;2023-12-20T00:31:02;1.40;;;0.90;;
23123;SDS011;11731;48.592;8.858;2023-12-20T00:33:29;1.10;;;1.00;;
23123;SDS011;11731;48.592;8.858;2023-12-20T00:35:57;0.70;;;0.70;;
23123;SDS011;11731;48.592;8.858;2023-12-20T00:38:26;0.70;;;0.70;;
23123;SDS011;11731;48.592;8.858;2023-12-20T00:40:53;0.50;;;0.50;;
23123;SDS011;11731;48.592;8.858;2023-12-20T00:43:20;0.70;;;0.70;;
23123;SDS011;11731;48.592;8.858;2023-12-20T00:45:47;0.50;;;0.50;;
23123;SDS011;11731;48.592;8.858;2023-12-20T00:48:15;1.13;;;0.80;;
23123;SDS011;11731;48.592;8.858;2023-12-20T00:50:42;1.50;;;0.60;;
23123;SDS011;11731;48.592;8.858;2023-12-20T00:53:09;0.57;;;0.57;;
23123;SDS011;11731;48.592;8.858;2023-12-20T00:55:36;0.63;;;0.60;;
23123;SDS011;11731;48.592;8.858;2023-12-20T00:58:03;0.87;;;0.80;;
23123;SDS011;11731;48.592;8.858;2023-12-20T01:00:30;0.67;;;0.63;;
23123;SDS011;11731;48.592;8.858;2023-12-20T01:02:57;0.60;;;0.60;;
23123;SDS011;11731;48.592;8.858;2023-12-20T01:05:25;0.60;;;0.60;;
23123;SDS011;11731;48.592;8.858;2023-12-20T01:07:52;1.60;;;0.80;;
23123;SDS011;11731;48.592;8.858;2023-12-20T01:10:19;1.00;;;0.90;;
23123;SDS011;11731;48.592;8.858;2023-12-20T01:12:47;1.20;;;0.83;;
23123;SDS011;11731;48.592;8.858;2023-12-20T01:15:14;0.80;;;0.77;;
23123;SDS011;11731;48.592;8.858;2023-12-20T01:17:41;0.73;;;0.70;;
23123;SDS011;11731;48.592;8.858;2023-12-20T01:20:08;1.67;;;1.00;;
23123;SDS011;11731;48.592;8.858;2023-12-20T01:22:39;0.73;;;0.73;;
23123;SDS011;11731;48.592;8.858;2023-12-20T01:25:08;1.63;;;1.07;;
23123;SDS011;11731;48.592;8.858;2023-12-20T01:27:35;1.60;;;1.20;;
23123;SDS011;11731;48.592;8.858;2023-12-20T01:30:02;1.40;;;1.03;;
23123;SDS011;11731;48.592;8.858;2023-12-20T01:32:29;0.87;;;0.87;;
23123;SDS011;11731;48.592;8.858;2023-12-20T01:34:56;2.43;;;1.00;;
23123;SDS011;11731;48.592;8.858;2023-12-20T01:37:23;1.10;;;0.90;;
23123;SDS011;11731;48.592;8.858;2023-12-20T01:40:09;1.07;;;0.97;;
23123;SDS011;11731;48.592;8.858;2023-12-20T01:42:36;1.00;;;0.90;;
23123;SDS011;11731;48.592;8.858;2023-12-20T01:45:04;0.70;;;0.70;;
23123;SDS011;11731;48.592;8.858;2023-12-20T01:47:31;0.60;;;0.60;;
23123;SDS011;11731;48.592;8.858;2023-12-20T01:49:58;0.60;;;0.60;;
23123;SDS011;11731;48.592;8.858;2023-12-20T01:52:25;0.43;;;0.37;;
23123;SDS011;11731;48.592;8.858;2023-12-20T01:54:54;0.50;;;0.50;;
23123;SDS011;11731;48.592;8.858;2023-12-20T01:57:41;0.30;;;0.30;;
23123;SDS011;11731;48.592;8.858;2023-12-20T02:00:11;0.50;;;0.50;;
23123;SDS011;11731;48.592;8.858;2023-12-20T02:02:40;0.40;;;0.40;;
23123;SDS011;11731;48.592;8.858;2023-12-20T02:05:09;0.50;;;0.50;;
23123;SDS011;11731;48.592;8.858;2023-12-20T02:07:37;0.30;;;0.30;;
23123;SDS011;11731;48.592;8.858;2023-12-20T02:10:04;0.40;;;0.40;;
23123;SDS011;11731;48.592;8.858;2023-12-20T02:12:31;0.63;;;0.60;;
23123;SDS011;11731;48.592;8.858;2023-12-20T02:14:59;0.63;;;0.40;;
23123;SDS011;11731;48.592;8.858;2023-12-20T02:17:27;0.87;;;0.40;;
23123;SDS011;11731;48.592;8.858;2023-12-20T02:19:56;0.53;;;0.50;;
23123;SDS011;11731;48.592;8.858;2023-12-20T02:22:31;0.43;;;0.40;;
23123;SDS011;11731;48.592;8.858;2023-12-20T02:25:08;0.30;;;0.30;;
23123;SDS011;11731;48.592;8.858;2023-12-20T02:27:35;0.33;;;0.20;;
23123;SDS011;11731;48.592;8.858;2023-12-20T02:30:02;0.50;;;0.30;;
23123;SDS011;11731;48.592;8.858;2023-12-20T02:32:29;0.67;;;0.47;;
23123;SDS011;11731;48.592;8.858;2023-12-20T02:34:57;0.80;;;0.50;;
23123;SDS011;11731;48.592;8.858;2023-12-20T02:37:24;0.37;;;0.30;;
23123;SDS011;11731;48.592;8.858;2023-12-20T02:39:52;0.30;;;0.20;;
23123;SDS011;11731;48.592;8.858;2023-12-20T02:42:19;0.40;;;0.20;;
23123;SDS011;11731;48.592;8.858;2023-12-20T02:44:46;0.20;;;0.20;;
23123;SDS011;11731;48.592;8.858;2023-12-20T02:47:13;0.10;;;0.10;;
23123;SDS011;11731;48.592;8.858;2023-12-20T02:49:40;0.10;;;0.10;;
23123;SDS011;11731;48.592;8.858;2023-12-20T02:52:06;0.10;;;0.10;;
23123;SDS011;11731;48.592;8.858;2023-12-20T02:54:33;0.10;;;0.10;;
23123;SDS011;11731;48.592;8.858;2023-12-20T02:57:02;0.00;;;0.00;;
23123;SDS011;11731;48.592;8.858;2023-12-20T02:59:29;0.13;;;0.13;;
23123;SDS011;11731;48.592;8.858;2023-12-20T03:01:56;0.00;;;0.00;;
23123;SDS011;11731;48.592;8.858;2023-12-20T03:04:23;0.53;;;0.07;;
23123;SDS011;11731;48.592;8.858;2023-12-20T03:06:50;0.00;;;0.00;;
23123;SDS011;11731;48.592;8.858;2023-12-20T03:09:17;0.10;;;0.10;;
23123;SDS011;11731;48.592;8.858;2023-12-20T03:11:44;0.10;;;0.00;;
23123;SDS011;11731;48.592;8.858;2023-12-20T03:14:12;0.10;;;0.10;;
23123;SDS011;11731;48.592;8.858;2023-12-20T03:16:39;0.00;;;0.00;;
23123;SDS011;11731;48.592;8.858;2023-12-20T03:19:06;0.10;;;0.10;;
23123;SDS011;11731;48.592;8.858;2023-12-20T03:21:33;0.30;;;0.20;;
23123;SDS011;11731;48.592;8.858;2023-12-20T03:24:00;0.00;;;0.00;;
23123;SDS011;11731;48.592;8.858;2023-12-20T03:26:27;0.43;;;0.10;;
23123;SDS011;11731;48.592;8.858;2023-12-20T03:28:54;0.00;;;0.00;;
23123;SDS011;11731;48.592;8.858;2023-12-20T03:34:24;0.00;;;0.00;;
23123;SDS011;11731;48.592;8.858;2023-12-20T03:36:52;0.00;;;0.00;;
23123;SDS011;11731;48.592;8.858;2023-12-20T03:39:33;0.00;;;0.00;;
23123;SDS011;11731;48.592;8.858;2023-12-20T03:45:06;0.10;;;0.10;;
23123;SDS011;11731;48.592;8.858;2023-12-20T03:47:35;0.10;;;0.10;;
23123;SDS011;11731;48.592;8.858;2023-12-20T03:50:02;0.00;;;0.00;;
23123;SDS011;11731;48.592;8.858;2023-12-20T03:52:29;0.10;;;0.10;;
23123;SDS011;11731;48.592;8.858;2023-12-20T03:54:56;0.20;;;0.20;;
23123;SDS011;11731;48.592;8.858;2023-12-20T03:57:23;0.50;;;0.10;;
23123;SDS011;11731;48.592;8.858;2023-12-20T03:59:50;0.23;;;0.23;;
23123;SDS011;11731;48.592;8.858;2023-12-20T04:02:17;0.10;;;0.10;;
23123;SDS011;11731;48.592;8.858;2023-12-20T04:07:27;0.10;;;0.10;;
23123;SDS011;11731;48.592;8.858;2023-12-20T04:09:54;0.17;;;0.17;;
23123;SDS011;11731;48.592;8.858;2023-12-20T04:12:21;0.10;;;0.10;;
23123;SDS011;11731;48.592;8.858;2023-12-20T04:14:48;0.20;;;0.20;;
23123;SDS011;11731;48.592;8.858;2023-12-20T04:17:15;0.10;;;0.10;;
23123;SDS011;11731;48.592;8.858;2023-12-20T04:19:42;0.97;;;0.20;;
23123;SDS011;11731;48.592;8.858;2023-12-20T04:22:11;0.10;;;0.10;;
23123;SDS011;11731;48.592;8.858;2023-12-20T04:24:37;0.43;;;0.30;;
23123;SDS011;11731;48.592;8.858;2023-12-20T04:27:04;0.10;;;0.10;;
23123;SDS011;11731;48.592;8.858;2023-12-20T04:29:36;0.10;;;0.10;;
23123;SDS011;11731;48.592;8.858;2023-12-20T04:32:03;1.80;;;0.10;;
23123;SDS011;11731;48.592;8.858;2023-12-20T04:34:31;0.00;;;0.00;;
23123;SDS011;11731;48.592;8.858;2023-12-20T04:36:58;0.40;;;0.37;;
23123;SDS011;11731;48.592;8.858;2023-12-20T04:39:28;0.40;;;0.23;;
23123;SDS011;11731;48.592;8.858;2023-12-20T04:41:55;0.20;;;0.20;;
23123;SDS011;11731;48.592;8.858;2023-12-20T04:44:22;0.10;;;0.10;;
23123;SDS011;11731;48.592;8.858;2023-12-20T04:46:49;0.30;;;0.30;;
23123;SDS011;11731;48.592;8.858;2023-12-20T04:49:16;0.30;;;0.30;;
23123;SDS011;11731;48.592;8.858;2023-12-20T04:51:43;0.80;;;0.70;;
23123;SDS011;11731;48.592;8.858;2023-12-20T04:54:17;0.50;;;0.50;;
23123;SDS011;11731;48.592;8.858;2023-12-20T04:56:46;0.40;;;0.40;;
23123;SDS011;11731;48.592;8.858;2023-12-20T04:59:12;0.40;;;0.30;;
23123;SDS011;11731;48.592;8.858;2023-12-20T05:01:40;0.20;;;0.20;;
23123;SDS011;11731;48.592;8.858;2023-12-20T05:04:07;0.33;;;0.33;;
23123;SDS011;11731;48.592;8.858;2023-12-20T05:06:34;0.30;;;0.30;;
23123;SDS011;11731;48.592;8.858;2023-12-20T05:09:03;0.43;;;0.43;;
23123;SDS011;11731;48.592;8.858;2023-12-20T05:11:30;0.27;;;0.27;;
23123;SDS011;11731;48.592;8.858;2023-12-20T05:14:04;0.30;;;0.20;;
23123;SDS011;11731;48.592;8.858;2023-12-20T05:16:53;0.30;;;0.30;;
23123;SDS011;11731;48.592;8.858;2023-12-20T05:19:21;0.30;;;0.20;;
23123;SDS011;11731;48.592;8.858;2023-12-20T05:21:49;0.47;;;0.37;;
23123;SDS011;11731;48.592;8.858;2023-12-20T05:24:16;0.20;;;0.20;;
23123;SDS011;11731;48.592;8.858;2023-12-20T05:26:50;0.40;;;0.40;;
23123;SDS011;11731;48.592;8.858;2023-12-20T05:29:18;1.17;;;0.60;;
23123;SDS011;11731;48.592;8.858;2023-12-20T05:31:46;0.27;;;0.27;;
23123;SDS011;11731;48.592;8.858;2023-12-20T05:34:13;0.40;;;0.23;;
23123;SDS011;11731;48.592;8.858;2023-12-20T05:36:39;0.40;;;0.40;;
23123;SDS011;11731;48.592;8.858;2023-12-20T05:39:06;1.17;;;0.70;;
23123;SDS011;11731;48.592;8.858;2023-12-20T05:41:33;1.10;;;0.80;;
23123;SDS011;11731;48.592;8.858;2023-12-20T05:44:00;0.63;;;0.53;;
23123;SDS011;11731;48.592;8.858;2023-12-20T05:46:31;0.60;;;0.50;;
23123;SDS011;11731;48.592;8.858;2023-12-20T05:49:13;0.33;;;0.30;;
23123;SDS011;11731;48.592;8.858;2023-12-20T05:51:40;0.17;;;0.17;;
23123;SDS011;11731;48.592;8.858;2023-12-20T05:54:09;0.10;;;0.10;;
23123;SDS011;11731;48.592;8.858;2023-12-20T05:56:36;0.13;;;0.13;;
23123;SDS011;11731;48.592;8.858;2023-12-20T05:59:02;0.20;;;0.20;;
23123;SDS011;11731;48.592;8.858;2023-12-20T06:01:31;0.10;;;0.10;;
23123;SDS011;11731;48.592;8.858;2023-12-20T06:03:58;0.20;;;0.20;;
23123;SDS011;11731;48.592;8.858;2023-12-20T06:06:24;0.20;;;0.20;;
23123;SDS011;11731;48.592;8.858;2023-12-20T06:08:53;0.13;;;0.10;;
23123;SDS011;11731;48.592;8.858;2023-12-20T06:11:19;0.10;;;0.10;;
23123;SDS011;11731;48.592;8.858;2023-12-20T06:13:46;0.10;;;0.10;;
23123;SDS011;11731;48.592;8.858;2023-12-20T06:16:14;0.13;;;0.13;;
23123;SDS011;11731;48.592;8.858;2023-12-20T06:18:42;0.37;;;0.30;;
23123;SDS011;11731;48.592;8.858;2023-12-20T06:21:09;0.40;;;0.20;;
23123;SDS011;11731;48.592;8.858;2023-12-20T06:23:50;0.40;;;0.40;;
23123;SDS011;11731;48.592;8.858;2023-12-20T06:26:16;1.57;;;0.40;;
23123;SDS011;11731;48.592;8.858;2023-12-20T06:28:43;0.20;;;0.20;;
23123;SDS011;11731;48.592;8.858;2023-12-20T06:31:10;0.20;;;0.20;;
23123;SDS011;11731;48.592;8.858;2023-12-20T06:33:37;0.40;;;0.30;;
23123;SDS011;11731;48.592;8.858;2023-12-20T06:36:07;0.63;;;0.40;;
23123;SDS011;11731;48.592;8.858;2023-12-20T06:38:36;1.67;;;0.60;;
23123;SDS011;11731;48.592;8.858;2023-12-20T06:41:03;0.30;;;0.30;;
23123;SDS011;11731;48.592;8.858;2023-12-20T06:43:45;0.73;;;0.70;;
23123;SDS011;11731;48.592;8.858;2023-12-20T06:47:51;0.50;;;0.50;;
23123;SDS011;11731;48.592;8.858;2023-12-20T06:49:54;0.20;;;0.20;;
23123;SDS011;11731;48.592;8.858;2023-12-20T06:52:23;0.50;;;0.47;;
23123;SDS011;11731;48.592;8.858;2023-12-20T06:54:50;1.00;;;0.80;;
23123;SDS011;11731;48.592;8.858;2023-12-20T06:57:16;1.30;;;0.90;;
23123;SDS011;11731;48.592;8.858;2023-12-20T06:59:44;1.40;;;1.10;;
23123;SDS011;11731;48.592;8.858;2023-12-20T07:02:17;1.20;;;1.00;;
23123;SDS011;11731;48.592;8.858;2023-12-20T07:04:44;1.10;;;0.83;;
23123;SDS011;11731;48.592;8.858;2023-12-20T07:07:11;1.70;;;1.40;;
23123;SDS011;11731;48.592;8.858;2023-12-20T07:09:39;1.13;;;0.70;;
23123;SDS011;11731;48.592;8.858;2023-12-20T07:12:07;0.60;;;0.60;;
23123;SDS011;11731;48.592;8.858;2023-12-20T07:14:34;0.63;;;0.60;;
23123;SDS011;11731;48.592;8.858;2023-12-20T07:17:01;0.50;;;0.50;;
23123;SDS011;11731;48.592;8.858;2023-12-20T07:19:29;1.50;;;0.80;;
23123;SDS011;11731;48.592;8.858;2023-12-20T07:21:59;0.40;;;0.40;;
23123;SDS011;11731;48.592;8.858;2023-12-20T07:24:41;0.67;;;0.50;;
23123;SDS011;11731;48.592;8.858;2023-12-20T07:27:08;0.50;;;0.50;;
23123;SDS011;11731;48.592;8.858;2023-12-20T07:29:35;1.30;;;0.57;;
23123;SDS011;11731;48.592;8.858;2023-12-20T07:32:39;1.00;;;0.70;;
23123;SDS011;11731;48.592;8.858;2023-12-20T07:35:28;0.87;;;0.70;;
23123;SDS011;11731;48.592;8.858;2023-12-20T07:37:56;0.93;;;0.80;;
23123;SDS011;11731;48.592;8.858;2023-12-20T07:40:25;0.83;;;0.80;;
23123;SDS011;11731;48.592;8.858;2023-12-20T07:42:51;0.80;;;0.80;;
23123;SDS011;11731;48.592;8.858;2023-12-20T07:45:18;1.33;;;1.23;;
23123;SDS011;11731;48.592;8.858;2023-12-20T07:47:45;1.10;;;1.00;;
23123;SDS011;11731;48.592;8.858;2023-12-20T07:57:23;3.17;;;1.70;;
23123;SDS011;11731;48.592;8.858;2023-12-20T07:59:50;1.83;;;1.60;;
23123;SDS011;11731;48.592;8.858;2023-12-20T08:02:16;1.53;;;1.40;;
23123;SDS011;11731;48.592;8.858;2023-12-20T08:04:43;1.40;;;1.30;;
23123;SDS011;11731;48.592;8.858;2023-12-20T08:07:10;0.90;;;0.80;;
23123;SDS011;11731;48.592;8.858;2023-12-20T08:09:37;1.77;;;1.03;;
23123;SDS011;11731;48.592;8.858;2023-12-20T08:12:04;1.63;;;0.90;;
23123;SDS011;11731;48.592;8.858;2023-12-20T08:14:33;1.00;;;0.90;;
23123;SDS011;11731;48.592;8.858;2023-12-20T08:17:00;1.17;;;1.00;;
23123;SDS011;11731;48.592;8.858;2023-12-20T08:19:27;1.43;;;0.97;;
23123;SDS011;11731;48.592;8.858;2023-12-20T08:21:53;1.33;;;1.10;;
23123;SDS011;11731;48.592;8.858;2023-12-20T08:24:20;1.33;;;0.90;;
23123;SDS011;11731;48.592;8.858;2023-12-20T08:28:54;1.03;;;0.90;;
23123;SDS011;11731;48.592;8.858;2023-12-20T08:30:06;0.60;;;0.60;;
23123;SDS011;11731;48.592;8.858;2023-12-20T08:32:35;1.27;;;0.90;;
23123;SDS011;11731;48.592;8.858;2023-12-20T08:35:02;0.83;;;0.80;;
23123;SDS011;11731;48.592;8.858;2023-12-20T08:37:31;1.63;;;1.30;;
23123;SDS011;11731;48.592;8.858;2023-12-20T08:39:58;1.40;;;1.30;;
23123;SDS011;11731;48.592;8.858;2023-12-20T08:42:24;2.63;;;1.27;;
23123;SDS011;11731;48.592;8.858;2023-12-20T08:44:56;1.00;;;0.90;;
23123;SDS011;11731;48.592;8.858;2023-12-20T08:47:25;1.10;;;1.00;;
23123;SDS011;11731;48.592;8.858;2023-12-20T08:49:51;5.73;;;1.40;;
23123;SDS011;11731;48.592;8.858;2023-12-20T08:52:21;1.63;;;1.07;;
23123;SDS011;11731;48.592;8.858;2023-12-20T08:54:48;0.90;;;0.90;;
23123;SDS011;11731;48.592;8.858;2023-12-20T08:57:16;2.23;;;1.10;;
23123;SDS011;11731;48.592;8.858;2023-12-20T08:59:43;0.97;;;0.83;;
23123;SDS011;11731;48.592;8.858;2023-12-20T09:02:24;1.30;;;1.00;;
23123;SDS011;11731;48.592;8.858;2023-12-20T09:05:07;5.30;;;1.27;;
23123;SDS011;11731;48.592;8.858;2023-12-20T09:08:00;1.33;;;1.13;;
23123;SDS011;11731;48.592;8.858;2023-12-20T09:10:30;1.43;;;0.90;;
23123;SDS011;11731;48.592;8.858;2023-12-20T09:13:14;1.20;;;1.10;;
23123;SDS011;11731;48.592;8.858;2023-12-20T09:15:41;1.10;;;1.00;;
23123;SDS011;11731;48.592;8.858;2023-12-20T09:18:09;2.03;;;1.27;;
23123;SDS011;11731;48.592;8.858;2023-12-20T09:20:36;6.03;;;1.83;;
23123;SDS011;11731;48.592;8.858;2023-12-20T09:23:03;1.90;;;0.87;;
23123;SDS011;11731;48.592;8.858;2023-12-20T09:25:30;2.07;;;1.10;;
23123;SDS011;11731;48.592;8.858;2023-12-20T09:27:56;2.70;;;1.00;;
23123;SDS011;11731;48.592;8.858;2023-12-20T09:30:23;4.80;;;1.10;;
23123;SDS011;11731;48.592;8.858;2023-12-20T09:32:50;2.10;;;1.07;;
23123;SDS011;11731;48.592;8.858;2023-12-20T09:38:20;2.37;;;1.03;;
23123;SDS011;11731;48.592;8.858;2023-12-20T09:40:47;1.53;;;1.30;;
23123;SDS011;11731;48.592;8.858;2023-12-20T09:43:15;3.07;;;0.97;;
23123;SDS011;11731;48.592;8.858;2023-12-20T09:45:45;1.83;;;0.87;;
23123;SDS011;11731;48.592;8.858;2023-12-20T09:48:13;1.40;;;1.00;;
23123;SDS011;11731;48.592;8.858;2023-12-20T09:50:43;2.17;;;1.00;;
23123;SDS011;11731;48.592;8.858;2023-12-20T09:53:12;1.53;;;0.97;;
23123;SDS011;11731;48.592;8.858;2023-12-20T09:55:43;3.17;;;1.10;;
23123;SDS011;11731;48.592;8.858;2023-12-20T09:58:09;2.43;;;1.00;;
23123;SDS011;11731;48.592;8.858;2023-12-20T10:00:36;1.73;;;0.97;;
23123;SDS011;11731;48.592;8.858;2023-12-20T10:03:03;1.00;;;0.63;;
23123;SDS011;11731;48.592;8.858;2023-12-20T10:05:33;2.63;;;0.80;;
23123;SDS011;11731;48.592;8.858;2023-12-20T10:08:00;1.87;;;0.70;;
23123;SDS011;11731;48.592;8.858;2023-12-20T10:10:28;1.00;;;0.70;;
23123;SDS011;11731;48.592;8.858;2023-12-20T10:13:03;0.73;;;0.67;;
23123;SDS011;11731;48.592;8.858;2023-12-20T10:15:30;3.13;;;1.07;;
23123;SDS011;11731;48.592;8.858;2023-12-20T10:18:04;1.13;;;1.00;;
23123;SDS011;11731;48.592;8.858;2023-12-20T10:21:14;1.20;;;0.90;;
23123;SDS011;11731;48.592;8.858;2023-12-20T10:23:43;2.03;;;0.90;;
23123;SDS011;11731;48.592;8.858;2023-12-20T10:26:23;1.50;;;0.93;;
23123;SDS011;11731;48.592;8.858;2023-12-20T10:28:55;2.00;;;0.90;;
23123;SDS011;11731;48.592;8.858;2023-12-20T10:31:28;2.40;;;0.67;;
23123;SDS011;11731;48.592;8.858;2023-12-20T10:34:20;2.20;;;0.93;;
23123;SDS011;11731;48.592;8.858;2023-12-20T10:36:46;2.50;;;1.00;;
23123;SDS011;11731;48.592;8.858;2023-12-20T10:39:13;1.57;;;0.90;;
23123;SDS011;11731;48.592;8.858;2023-12-20T10:41:41;2.10;;;0.80;;
23123;SDS011;11731;48.592;8.858;2023-12-20T10:44:11;1.27;;;0.87;;
23123;SDS011;11731;48.592;8.858;2023-12-20T10:46:39;5.23;;;0.90;;
23123;SDS011;11731;48.592;8.858;2023-12-20T10:49:12;2.03;;;0.77;;
23123;SDS011;11731;48.592;8.858;2023-12-20T10:51:41;2.57;;;0.80;;
23123;SDS011;11731;48.592;8.858;2023-12-20T10:54:12;1.43;;;0.70;;
23123;SDS011;11731;48.592;8.858;2023-12-20T10:56:40;1.63;;;1.10;;
23123;SDS011;11731;48.592;8.858;2023-12-20T10:59:07;3.17;;;0.97;;
23123;SDS011;11731;48.592;8.858;2023-12-20T11:01:41;5.53;;;1.10;;
23123;SDS011;11731;48.592;8.858;2023-12-20T11:04:31;3.30;;;0.80;;
23123;SDS011;11731;48.592;8.858;2023-12-20T11:07:07;3.43;;;1.00;;
23123;SDS011;11731;48.592;8.858;2023-12-20T11:09:44;0.87;;;0.80;;
23123;SDS011;11731;48.592;8.858;2023-12-20T11:12:16;1.20;;;0.70;;
23123;SDS011;11731;48.592;8.858;2023-12-20T11:14:49;2.30;;;0.90;;
23123;SDS011;11731;48.592;8.858;2023-12-20T11:17:18;0.70;;;0.70;;
23123;SDS011;11731;48.592;8.858;2023-12-20T11:22:35;3.50;;;0.87;;
23123;SDS011;11731;48.592;8.858;2023-12-20T11:25:04;1.03;;;0.80;;
23123;SDS011;11731;48.592;8.858;2023-12-20T11:27:33;2.40;;;0.90;;
23123;SDS011;11731;48.592;8.858;2023-12-20T11:30:02;1.30;;;1.20;;
23123;SDS011;11731;48.592;8.858;2023-12-20T11:32:35;2.13;;;0.90;;
23123;SDS011;11731;48.592;8.858;2023-12-20T11:35:16;1.60;;;0.90;;
23123;SDS011;11731;48.592;8.858;2023-12-20T11:37:45;4.20;;;1.00;;
23123;SDS011;11731;48.592;8.858;2023-12-20T11:40:13;2.47;;;1.10;;
23123;SDS011;11731;48.592;8.858;2023-12-20T11:42:42;7.17;;;1.07;;
23123;SDS011;11731;48.592;8.858;2023-12-20T11:45:12;4.87;;;1.37;;
23123;SDS011;11731;48.592;8.858;2023-12-20T11:47:41;2.37;;;1.00;;
23123;SDS011;11731;48.592;8.858;2023-12-20T11:50:09;2.33;;;0.93;;
23123;SDS011;11731;48.592;8.858;2023-12-20T11:52:36;4.80;;;1.10;;
23123;SDS011;11731;48.592;8.858;2023-12-20T11:55:05;1.83;;;0.93;;
23123;SDS011;11731;48.592;8.858;2023-12-20T12:00:52;2.73;;;0.80;;
23123;SDS011;11731;48.592;8.858;2023-12-20T12:03:19;3.10;;;1.03;;
23123;SDS011;11731;48.592;8.858;2023-12-20T12:05:47;6.07;;;1.27;;
23123;SDS011;11731;48.592;8.858;2023-12-20T12:08:13;2.53;;;1.10;;
23123;SDS011;11731;48.592;8.858;2023-12-20T12:10:40;1.80;;;1.20;;
23123;SDS011;11731;48.592;8.858;2023-12-20T12:13:07;2.43;;;1.47;;
23123;SDS011;11731;48.592;8.858;2023-12-20T12:15:35;6.60;;;1.40;;
23123;SDS011;11731;48.592;8.858;2023-12-20T12:18:04;4.57;;;1.10;;
23123;SDS011;11731;48.592;8.858;2023-12-20T12:20:32;3.20;;;1.00;;
23123;SDS011;11731;48.592;8.858;2023-12-20T12:22:59;3.37;;;1.00;;
23123;SDS011;11731;48.592;8.858;2023-12-20T12:25:36;2.20;;;1.10;;
23123;SDS011;11731;48.592;8.858;2023-12-20T12:28:03;4.53;;;1.00;;
23123;SDS011;11731;48.592;8.858;2023-12-20T12:30:30;1.70;;;1.33;;
23123;SDS011;11731;48.592;8.858;2023-12-20T12:32:57;2.30;;;1.20;;
23123;SDS011;11731;48.592;8.858;2023-12-20T12:35:25;2.97;;;1.03;;
23123;SDS011;11731;48.592;8.858;2023-12-20T12:37:52;1.87;;;1.00;;
23123;SDS011;11731;48.592;8.858;2023-12-20T12:40:19;3.70;;;1.00;;
23123;SDS011;11731;48.592;8.858;2023-12-20T12:46:08;1.23;;;0.83;;
23123;SDS011;11731;48.592;8.858;2023-12-20T12:48:35;0.60;;;0.60;;
23123;SDS011;11731;48.592;8.858;2023-12-20T12:51:04;1.70;;;0.90;;
23123;SDS011;11731;48.592;8.858;2023-12-20T12:53:32;3.80;;;1.00;;
23123;SDS011;11731;48.592;8.858;2023-12-20T12:55:59;1.93;;;0.80;;
23123;SDS011;11731;48.592;8.858;2023-12-20T12:58:33;3.03;;;1.30;;
23123;SDS011;11731;48.592;8.858;2023-12-20T13:01:00;2.10;;;0.70;;
23123;SDS011;11731;48.592;8.858;2023-12-20T13:03:28;4.47;;;1.40;;
23123;SDS011;11731;48.592;8.858;2023-12-20T13:05:55;3.10;;;0.97;;
23123;SDS011;11731;48.592;8.858;2023-12-20T13:08:23;2.90;;;0.80;;
23123;SDS011;11731;48.592;8.858;2023-12-20T13:10:50;4.20;;;1.57;;
23123;SDS011;11731;48.592;8.858;2023-12-20T13:13:17;4.53;;;1.10;;
23123;SDS011;11731;48.592;8.858;2023-12-20T13:15:44;1.80;;;0.80;;
23123;SDS011;11731;48.592;8.858;2023-12-20T13:18:16;1.53;;;0.70;;
23123;SDS011;11731;48.592;8.858;2023-12-20T13:20:43;4.73;;;1.10;;
23123;SDS011;11731;48.592;8.858;2023-12-20T13:23:10;2.27;;;1.03;;
23123;SDS011;11731;48.592;8.858;2023-12-20T13:25:38;1.77;;;0.83;;
23123;SDS011;11731;48.592;8.858;2023-12-20T13:28:05;1.67;;;0.80;;
23123;SDS011;11731;48.592;8.858;2023-12-20T13:30:35;3.40;;;1.20;;
23123;SDS011;11731;48.592;8.858;2023-12-20T13:33:04;2.97;;;1.20;;
23123;SDS011;11731;48.592;8.858;2023-12-20T13:35:31;1.37;;;0.73;;
23123;SDS011;11731;48.592;8.858;2023-12-20T13:37:58;1.97;;;1.10;;
23123;SDS011;11731;48.592;8.858;2023-12-20T13:40:25;1.57;;;0.80;;
23123;SDS011;11731;48.592;8.858;2023-12-20T13:42:54;1.67;;;1.13;;
23123;SDS011;11731;48.592;8.858;2023-12-20T13:45:21;2.33;;;1.23;;
23123;SDS011;11731;48.592;8.858;2023-12-20T13:47:50;3.60;;;1.33;;
23123;SDS011;11731;48.592;8.858;2023-12-20T13:50:23;3.77;;;1.30;;
23123;SDS011;11731;48.592;8.858;2023-12-20T13:53:09;1.70;;;1.10;;
23123;SDS011;11731;48.592;8.858;2023-12-20T13:55:36;1.93;;;0.70;;
23123;SDS011;11731;48.592;8.858;2023-12-20T13:58:04;1.37;;;0.63;;
23123;SDS011;11731;48.592;8.858;2023-12-20T14:00:31;4.23;;;0.90;;
23123;SDS011;11731;48.592;8.858;2023-12-20T14:02:58;4.80;;;1.20;;
23123;SDS011;11731;48.592;8.858;2023-12-20T14:05:25;0.83;;;0.80;;
23123;SDS011;11731;48.592;8.858;2023-12-20T14:07:53;1.00;;;0.73;;
23123;SDS011;11731;48.592;8.858;2023-12-20T14:10:22;1.90;;;0.80;;
23123;SDS011;11731;48.592;8.858;2023-12-20T14:12:51;2.27;;;1.20;;
23123;SDS011;11731;48.592;8.858;2023-12-20T14:15:19;1.77;;;1.10;;
23123;SDS011;11731;48.592;8.858;2023-12-20T14:17:46;1.47;;;0.67;;
23123;SDS011;11731;48.592;8.858;2023-12-20T14:20:13;2.00;;;1.10;;
23123;SDS011;11731;48.592;8.858;2023-12-20T14:22:40;1.60;;;0.87;;
23123;SDS011;11731;48.592;8.858;2023-12-20T14:25:10;3.57;;;1.10;;
23123;SDS011;11731;48.592;8.858;2023-12-20T14:27:37;1.57;;;1.00;;
23123;SDS011;11731;48.592;8.858;2023-12-20T14:30:04;1.53;;;0.93;;
23123;SDS011;11731;48.592;8.858;2023-12-20T14:32:34;0.60;;;0.60;;
23123;SDS011;11731;48.592;8.858;2023-12-20T14:35:03;2.10;;;0.97;;
23123;SDS011;11731;48.592;8.858;2023-12-20T14:37:30;1.63;;;0.80;;
23123;SDS011;11731;48.592;8.858;2023-12-20T14:40:01;5.77;;;1.20;;
23123;SDS011;11731;48.592;8.858;2023-12-20T14:42:28;1.10;;;1.00;;
23123;SDS011;11731;48.592;8.858;2023-12-20T14:44:55;5.30;;;1.00;;
23123;SDS011;11731;48.592;8.858;2023-12-20T14:47:22;3.20;;;1.10;;
23123;SDS011;11731;48.592;8.858;2023-12-20T14:49:51;3.87;;;0.73;;
23123;SDS011;11731;48.592;8.858;2023-12-20T14:52:18;1.50;;;0.70;;
23123;SDS011;11731;48.592;8.858;2023-12-20T14:54:45;3.37;;;1.00;;
23123;SDS011;11731;48.592;8.858;2023-12-20T14:57:12;1.57;;;0.80;;
23123;SDS011;11731;48.592;8.858;2023-12-20T14:59:39;1.00;;;0.90;;
23123;SDS011;11731;48.592;8.858;2023-12-20T15:02:06;2.33;;;1.00;;
23123;SDS011;11731;48.592;8.858;2023-12-20T15:04:33;1.70;;;0.90;;
23123;SDS011;11731;48.592;8.858;2023-12-20T15:07:01;1.67;;;0.87;;
23123;SDS011;11731;48.592;8.858;2023-12-20T15:09:30;2.20;;;1.00;;
23123;SDS011;11731;48.592;8.858;2023-12-20T15:11:57;3.13;;;1.17;;
23123;SDS011;11731;48.592;8.858;2023-12-20T15:14:24;2.47;;;1.10;;
23123;SDS011;11731;48.592;8.858;2023-12-20T15:16:53;2.23;;;1.53;;
23123;SDS011;11731;48.592;8.858;2023-12-20T15:19:20;3.17;;;1.10;;
23123;SDS011;11731;48.592;8.858;2023-12-20T15:21:47;1.50;;;0.93;;
23123;SDS011;11731;48.592;8.858;2023-12-20T15:24:16;3.00;;;1.23;;
23123;SDS011;11731;48.592;8.858;2023-12-20T15:54:09;3.63;;;1.50;;
23123;SDS011;11731;48.592;8.858;2023-12-20T15:57:21;5.33;;;1.33;;